Terminal Aerodrome Forecast
Issued by NWS Springfield, MO

Home | Current Version | Previous Version | Text Only | Print | Product List | Glossary On
Versions: 1 2 3 4 5 6 7 8 9 10 11 12 13 14 15 16 17 18 19 20 21 22 23 24 25 26 27 28 29
838
FTUS43 KSGF 161120
TAFSGF
TAF
KSGF 161120Z 1612/1712 14013G21KT 6SM -SHRA OVC008
     FM161400 14014G24KT 6SM -SHRA OVC015
     FM161700 16014G24KT P6SM VCSH OVC020
     FM162000 18011G21KT P6SM VCSH BKN035
     FM170000 23008KT P6SM BKN035
     FM170900 27008KT 4SM BR BKN005=

USA.gov is the U.S. government's official web portal to all federal, state and local government web resources and services.